sensor_id;sensor_type;location;lat;lon;timestamp;temperature;humidity
68385;DHT22;55336;43.062;25.626;2022-07-22T00:01:05;19.40;96.30
68385;DHT22;55336;43.062;25.626;2022-07-22T00:03:30;19.30;96.40
68385;DHT22;55336;43.062;25.626;2022-07-22T00:05:56;19.30;96.20
68385;DHT22;55336;43.062;25.626;2022-07-22T00:08:22;19.20;96.40
68385;DHT22;55336;43.062;25.626;2022-07-22T00:10:49;19.20;96.50
68385;DHT22;55336;43.062;25.626;2022-07-22T00:13:14;19.20;97.20
68385;DHT22;55336;43.062;25.626;2022-07-22T00:15:40;19.10;97.70
68385;DHT22;55336;43.062;25.626;2022-07-22T00:18:06;19.10;98.30
68385;DHT22;55336;43.062;25.626;2022-07-22T00:20:31;19.10;98.90
68385;DHT22;55336;43.062;25.626;2022-07-22T00:22:57;19.10;99.40
68385;DHT22;55336;43.062;25.626;2022-07-22T00:25:23;19.10;99.90
68385;DHT22;55336;43.062;25.626;2022-07-22T00:27:49;19.00;99.90
68385;DHT22;55336;43.062;25.626;2022-07-22T00:30:14;19.00;99.90
68385;DHT22;55336;43.062;25.626;2022-07-22T00:32:40;19.00;99.90
68385;DHT22;55336;43.062;25.626;2022-07-22T00:35:06;19.00;99.90
68385;DHT22;55336;43.062;25.626;2022-07-22T00:37:32;18.90;99.90
68385;DHT22;55336;43.062;25.626;2022-07-22T00:39:58;18.90;99.90
68385;DHT22;55336;43.062;25.626;2022-07-22T00:42:23;19.00;99.90
68385;DHT22;55336;43.062;25.626;2022-07-22T00:44:49;18.90;99.90
68385;DHT22;55336;43.062;25.626;2022-07-22T00:47:15;18.90;99.90
68385;DHT22;55336;43.062;25.626;2022-07-22T00:49:40;18.80;99.90
68385;DHT22;55336;43.062;25.626;2022-07-22T00:52:06;18.80;99.90
68385;DHT22;55336;43.062;25.626;2022-07-22T00:54:32;18.70;99.90
68385;DHT22;55336;43.062;25.626;2022-07-22T00:56:58;18.70;99.90
68385;DHT22;55336;43.062;25.626;2022-07-22T00:59:24;18.70;99.90
68385;DHT22;55336;43.062;25.626;2022-07-22T01:01:50;18.60;99.90
68385;DHT22;55336;43.062;25.626;2022-07-22T01:04:17;18.60;99.90
68385;DHT22;55336;43.062;25.626;2022-07-22T01:06:44;18.60;99.90
68385;DHT22;55336;43.062;25.626;2022-07-22T01:09:10;18.50;99.90
68385;DHT22;55336;43.062;25.626;2022-07-22T01:11:36;18.50;99.90
68385;DHT22;55336;43.062;25.626;2022-07-22T01:14:02;18.50;99.90
68385;DHT22;55336;43.062;25.626;2022-07-22T01:16:28;18.40;99.90
68385;DHT22;55336;43.062;25.626;2022-07-22T01:18:53;18.20;99.90
68385;DHT22;55336;43.062;25.626;2022-07-22T01:21:19;18.20;99.90
68385;DHT22;55336;43.062;25.626;2022-07-22T01:23:46;18.10;99.90
68385;DHT22;55336;43.062;25.626;2022-07-22T01:26:12;18.00;99.90
68385;DHT22;55336;43.062;25.626;2022-07-22T01:28:38;18.00;99.90
68385;DHT22;55336;43.062;25.626;2022-07-22T01:31:04;17.90;99.90
68385;DHT22;55336;43.062;25.626;2022-07-22T01:33:30;17.90;99.90
68385;DHT22;55336;43.062;25.626;2022-07-22T01:35:55;17.80;99.90
68385;DHT22;55336;43.062;25.626;2022-07-22T01:38:21;17.80;99.90
68385;DHT22;55336;43.062;25.626;2022-07-22T01:40:47;17.70;99.90
68385;DHT22;55336;43.062;25.626;2022-07-22T01:43:13;17.70;99.90
68385;DHT22;55336;43.062;25.626;2022-07-22T01:45:44;17.60;99.90
68385;DHT22;55336;43.062;25.626;2022-07-22T01:48:10;17.60;99.90
68385;DHT22;55336;43.062;25.626;2022-07-22T01:50:36;17.50;99.90
68385;DHT22;55336;43.062;25.626;2022-07-22T01:53:02;17.50;99.90
68385;DHT22;55336;43.062;25.626;2022-07-22T01:55:28;17.40;99.90
68385;DHT22;55336;43.062;25.626;2022-07-22T01:57:54;17.40;99.90
68385;DHT22;55336;43.062;25.626;2022-07-22T02:00:20;17.30;99.90
68385;DHT22;55336;43.062;25.626;2022-07-22T02:02:45;17.20;99.90
68385;DHT22;55336;43.062;25.626;2022-07-22T02:05:11;17.30;99.90
68385;DHT22;55336;43.062;25.626;2022-07-22T02:07:37;17.20;99.90
68385;DHT22;55336;43.062;25.626;2022-07-22T02:10:03;17.30;99.90
68385;DHT22;55336;43.062;25.626;2022-07-22T02:12:29;17.20;99.90
68385;DHT22;55336;43.062;25.626;2022-07-22T02:14:56;17.20;99.90
68385;DHT22;55336;43.062;25.626;2022-07-22T02:17:22;17.20;99.90
68385;DHT22;55336;43.062;25.626;2022-07-22T02:19:48;17.20;99.90
68385;DHT22;55336;43.062;25.626;2022-07-22T02:22:13;17.20;99.90
68385;DHT22;55336;43.062;25.626;2022-07-22T02:24:39;17.20;99.90
68385;DHT22;55336;43.062;25.626;2022-07-22T02:27:05;17.20;99.90
68385;DHT22;55336;43.062;25.626;2022-07-22T02:29:31;17.20;99.90
68385;DHT22;55336;43.062;25.626;2022-07-22T02:31:58;17.10;99.90
68385;DHT22;55336;43.062;25.626;2022-07-22T02:34:23;17.10;99.90
68385;DHT22;55336;43.062;25.626;2022-07-22T02:36:49;17.00;99.90
68385;DHT22;55336;43.062;25.626;2022-07-22T02:39:15;17.00;99.90
68385;DHT22;55336;43.062;25.626;2022-07-22T02:41:43;17.00;99.90
68385;DHT22;55336;43.062;25.626;2022-07-22T02:44:09;17.00;99.90
68385;DHT22;55336;43.062;25.626;2022-07-22T02:46:35;17.00;99.90
68385;DHT22;55336;43.062;25.626;2022-07-22T02:49:01;16.90;99.90
68385;DHT22;55336;43.062;25.626;2022-07-22T02:51:27;16.90;99.90
68385;DHT22;55336;43.062;25.626;2022-07-22T02:53:53;16.80;99.90
68385;DHT22;55336;43.062;25.626;2022-07-22T02:56:19;16.80;99.90
68385;DHT22;55336;43.062;25.626;2022-07-22T02:58:45;16.80;99.90
68385;DHT22;55336;43.062;25.626;2022-07-22T03:01:12;16.70;99.90
68385;DHT22;55336;43.062;25.626;2022-07-22T03:03:37;16.70;99.90
68385;DHT22;55336;43.062;25.626;2022-07-22T03:06:04;16.70;99.90
68385;DHT22;55336;43.062;25.626;2022-07-22T03:08:29;16.60;99.90
68385;DHT22;55336;43.062;25.626;2022-07-22T03:10:55;16.60;99.90
68385;DHT22;55336;43.062;25.626;2022-07-22T03:13:21;16.60;99.90
68385;DHT22;55336;43.062;25.626;2022-07-22T03:15:46;16.60;99.90
68385;DHT22;55336;43.062;25.626;2022-07-22T03:18:12;16.60;99.90
68385;DHT22;55336;43.062;25.626;2022-07-22T03:20:38;16.60;99.90
68385;DHT22;55336;43.062;25.626;2022-07-22T03:23:04;16.60;99.90
68385;DHT22;55336;43.062;25.626;2022-07-22T03:25:29;16.60;99.90
68385;DHT22;55336;43.062;25.626;2022-07-22T03:27:57;16.60;99.90
68385;DHT22;55336;43.062;25.626;2022-07-22T03:30:23;16.70;99.90
68385;DHT22;55336;43.062;25.626;2022-07-22T03:32:49;16.70;99.90
68385;DHT22;55336;43.062;25.626;2022-07-22T03:35:15;16.70;99.90
68385;DHT22;55336;43.062;25.626;2022-07-22T03:37:41;16.80;99.90
68385;DHT22;55336;43.062;25.626;2022-07-22T03:40:07;16.80;99.90
68385;DHT22;55336;43.062;25.626;2022-07-22T03:42:33;16.80;99.90
68385;DHT22;55336;43.062;25.626;2022-07-22T03:44:59;16.90;99.90
68385;DHT22;55336;43.062;25.626;2022-07-22T03:47:24;16.90;99.90
68385;DHT22;55336;43.062;25.626;2022-07-22T03:49:50;17.00;99.90
68385;DHT22;55336;43.062;25.626;2022-07-22T03:52:16;17.00;99.90
68385;DHT22;55336;43.062;25.626;2022-07-22T03:54:42;17.10;99.90
68385;DHT22;55336;43.062;25.626;2022-07-22T03:57:08;17.20;99.90
68385;DHT22;55336;43.062;25.626;2022-07-22T03:59:34;17.30;99.90
68385;DHT22;55336;43.062;25.626;2022-07-22T04:02:00;17.30;99.90
68385;DHT22;55336;43.062;25.626;2022-07-22T04:04:25;17.50;99.90
68385;DHT22;55336;43.062;25.626;2022-07-22T04:06:51;17.50;99.90
68385;DHT22;55336;43.062;25.626;2022-07-22T04:09:17;17.60;99.90
68385;DHT22;55336;43.062;25.626;2022-07-22T04:11:43;17.70;99.90
68385;DHT22;55336;43.062;25.626;2022-07-22T04:14:09;17.90;99.90
68385;DHT22;55336;43.062;25.626;2022-07-22T04:16:35;17.90;99.90
68385;DHT22;55336;43.062;25.626;2022-07-22T04:19:02;18.10;99.90
68385;DHT22;55336;43.062;25.626;2022-07-22T04:21:28;18.30;99.90
68385;DHT22;55336;43.062;25.626;2022-07-22T04:23:54;18.40;99.90
68385;DHT22;55336;43.062;25.626;2022-07-22T04:26:20;18.70;99.90
68385;DHT22;55336;43.062;25.626;2022-07-22T04:28:46;18.80;99.90
68385;DHT22;55336;43.062;25.626;2022-07-22T04:31:12;19.00;99.90
68385;DHT22;55336;43.062;25.626;2022-07-22T04:33:37;19.20;99.90
68385;DHT22;55336;43.062;25.626;2022-07-22T04:36:03;19.30;99.90
68385;DHT22;55336;43.062;25.626;2022-07-22T04:38:29;19.50;99.90
68385;DHT22;55336;43.062;25.626;2022-07-22T04:40:55;19.70;99.90
68385;DHT22;55336;43.062;25.626;2022-07-22T04:43:21;20.00;99.90
68385;DHT22;55336;43.062;25.626;2022-07-22T04:45:47;20.40;99.90
68385;DHT22;55336;43.062;25.626;2022-07-22T04:48:13;20.70;99.90
68385;DHT22;55336;43.062;25.626;2022-07-22T04:50:38;21.00;99.80
68385;DHT22;55336;43.062;25.626;2022-07-22T04:53:04;21.40;97.50
68385;DHT22;55336;43.062;25.626;2022-07-22T04:55:30;21.70;95.40
68385;DHT22;55336;43.062;25.626;2022-07-22T04:57:56;22.00;95.80
68385;DHT22;55336;43.062;25.626;2022-07-22T05:00:22;22.00;94.00
68385;DHT22;55336;43.062;25.626;2022-07-22T05:02:47;22.00;92.50
68385;DHT22;55336;43.062;25.626;2022-07-22T05:05:13;22.30;91.60
68385;DHT22;55336;43.062;25.626;2022-07-22T05:07:39;22.40;90.50
68385;DHT22;55336;43.062;25.626;2022-07-22T05:10:04;22.80;90.20
68385;DHT22;55336;43.062;25.626;2022-07-22T05:12:30;23.20;88.20
68385;DHT22;55336;43.062;25.626;2022-07-22T05:14:59;23.50;85.30
68385;DHT22;55336;43.062;25.626;2022-07-22T05:17:24;23.70;82.60
68385;DHT22;55336;43.062;25.626;2022-07-22T05:19:50;23.80;82.20
68385;DHT22;55336;43.062;25.626;2022-07-22T05:22:16;23.80;82.70
68385;DHT22;55336;43.062;25.626;2022-07-22T05:24:42;23.80;81.80
68385;DHT22;55336;43.062;25.626;2022-07-22T05:27:08;24.20;80.10
68385;DHT22;55336;43.062;25.626;2022-07-22T05:29:33;24.20;79.30
68385;DHT22;55336;43.062;25.626;2022-07-22T05:31:59;24.50;78.90
68385;DHT22;55336;43.062;25.626;2022-07-22T05:34:25;24.80;77.10
68385;DHT22;55336;43.062;25.626;2022-07-22T05:36:51;25.10;75.30
68385;DHT22;55336;43.062;25.626;2022-07-22T05:39:17;25.50;72.50
68385;DHT22;55336;43.062;25.626;2022-07-22T05:41:43;25.90;72.70
68385;DHT22;55336;43.062;25.626;2022-07-22T05:44:09;26.40;69.70
68385;DHT22;55336;43.062;25.626;2022-07-22T05:46:35;26.40;69.70
68385;DHT22;55336;43.062;25.626;2022-07-22T05:49:00;26.40;68.80
68385;DHT22;55336;43.062;25.626;2022-07-22T05:51:26;26.80;64.70
68385;DHT22;55336;43.062;25.626;2022-07-22T05:53:52;27.20;63.90
68385;DHT22;55336;43.062;25.626;2022-07-22T05:56:18;27.10;62.40
68385;DHT22;55336;43.062;25.626;2022-07-22T05:58:44;27.50;62.10
68385;DHT22;55336;43.062;25.626;2022-07-22T06:01:10;28.20;60.70
68385;DHT22;55336;43.062;25.626;2022-07-22T06:03:35;28.40;57.70
68385;DHT22;55336;43.062;25.626;2022-07-22T06:06:01;28.50;57.60
68385;DHT22;55336;43.062;25.626;2022-07-22T06:08:30;29.00;56.00
68385;DHT22;55336;43.062;25.626;2022-07-22T06:10:56;29.10;55.90
68385;DHT22;55336;43.062;25.626;2022-07-22T06:13:22;29.60;54.60
68385;DHT22;55336;43.062;25.626;2022-07-22T06:15:48;29.80;53.20
68385;DHT22;55336;43.062;25.626;2022-07-22T06:18:13;29.60;54.60
68385;DHT22;55336;43.062;25.626;2022-07-22T06:20:39;30.10;51.30
68385;DHT22;55336;43.062;25.626;2022-07-22T06:23:05;30.20;48.90
68385;DHT22;55336;43.062;25.626;2022-07-22T06:25:31;30.70;49.40
68385;DHT22;55336;43.062;25.626;2022-07-22T06:27:57;31.20;45.60
68385;DHT22;55336;43.062;25.626;2022-07-22T06:30:23;31.40;45.80
68385;DHT22;55336;43.062;25.626;2022-07-22T06:32:48;31.40;44.00
68385;DHT22;55336;43.062;25.626;2022-07-22T06:35:14;31.20;43.60
68385;DHT22;55336;43.062;25.626;2022-07-22T06:37:40;31.20;45.10
68385;DHT22;55336;43.062;25.626;2022-07-22T06:40:05;31.80;43.10
68385;DHT22;55336;43.062;25.626;2022-07-22T06:42:31;32.10;42.20
68385;DHT22;55336;43.062;25.626;2022-07-22T06:44:57;32.40;41.30
68385;DHT22;55336;43.062;25.626;2022-07-22T06:47:25;32.70;39.60
68385;DHT22;55336;43.062;25.626;2022-07-22T06:49:51;32.70;41.40
68385;DHT22;55336;43.062;25.626;2022-07-22T06:52:17;32.50;42.70
68385;DHT22;55336;43.062;25.626;2022-07-22T06:54:43;32.60;42.20
68385;DHT22;55336;43.062;25.626;2022-07-22T06:57:08;32.60;40.30
68385;DHT22;55336;43.062;25.626;2022-07-22T06:59:34;33.10;38.70
68385;DHT22;55336;43.062;25.626;2022-07-22T07:02:00;33.50;37.50
68385;DHT22;55336;43.062;25.626;2022-07-22T07:04:26;33.60;37.00
68385;DHT22;55336;43.062;25.626;2022-07-22T07:06:51;33.90;36.10
68385;DHT22;55336;43.062;25.626;2022-07-22T07:09:17;34.00;37.20
68385;DHT22;55336;43.062;25.626;2022-07-22T07:11:43;33.90;36.30
68385;DHT22;55336;43.062;25.626;2022-07-22T07:14:10;34.00;36.10
68385;DHT22;55336;43.062;25.626;2022-07-22T07:16:36;34.20;35.50
68385;DHT22;55336;43.062;25.626;2022-07-22T07:19:02;34.40;35.10
68385;DHT22;55336;43.062;25.626;2022-07-22T07:21:28;34.80;35.00
68385;DHT22;55336;43.062;25.626;2022-07-22T07:23:56;35.00;33.80
68385;DHT22;55336;43.062;25.626;2022-07-22T07:26:22;35.00;34.10
68385;DHT22;55336;43.062;25.626;2022-07-22T07:28:48;34.60;33.00
68385;DHT22;55336;43.062;25.626;2022-07-22T07:31:14;34.60;33.50
68385;DHT22;55336;43.062;25.626;2022-07-22T07:33:43;35.00;33.60
68385;DHT22;55336;43.062;25.626;2022-07-22T07:36:15;35.30;32.40
68385;DHT22;55336;43.062;25.626;2022-07-22T07:38:41;35.50;32.20
68385;DHT22;55336;43.062;25.626;2022-07-22T07:41:07;35.30;32.00
68385;DHT22;55336;43.062;25.626;2022-07-22T07:43:33;35.50;31.80
68385;DHT22;55336;43.062;25.626;2022-07-22T07:45:59;35.80;30.90
68385;DHT22;55336;43.062;25.626;2022-07-22T07:48:25;35.80;31.50
68385;DHT22;55336;43.062;25.626;2022-07-22T07:50:53;35.50;32.10
68385;DHT22;55336;43.062;25.626;2022-07-22T07:53:19;35.90;31.10
68385;DHT22;55336;43.062;25.626;2022-07-22T07:55:44;36.40;30.40
68385;DHT22;55336;43.062;25.626;2022-07-22T07:58:10;36.70;29.60
68385;DHT22;55336;43.062;25.626;2022-07-22T08:00:36;36.30;29.90
68385;DHT22;55336;43.062;25.626;2022-07-22T08:03:04;36.00;31.10
68385;DHT22;55336;43.062;25.626;2022-07-22T08:05:30;35.80;30.90
68385;DHT22;55336;43.062;25.626;2022-07-22T08:07:56;35.80;31.90
68385;DHT22;55336;43.062;25.626;2022-07-22T08:10:30;36.10;31.20
68385;DHT22;55336;43.062;25.626;2022-07-22T08:16:00;36.50;30.20
68385;DHT22;55336;43.062;25.626;2022-07-22T08:18:27;35.20;30.40
68385;DHT22;55336;43.062;25.626;2022-07-22T08:20:53;35.80;30.80
68385;DHT22;55336;43.062;25.626;2022-07-22T08:23:19;36.30;31.20
68385;DHT22;55336;43.062;25.626;2022-07-22T08:25:45;36.50;29.10
68385;DHT22;55336;43.062;25.626;2022-07-22T08:28:11;36.60;29.30
68385;DHT22;55336;43.062;25.626;2022-07-22T08:30:37;37.10;28.50
68385;DHT22;55336;43.062;25.626;2022-07-22T08:33:04;37.60;27.80
68385;DHT22;55336;43.062;25.626;2022-07-22T08:35:30;37.60;27.60
68385;DHT22;55336;43.062;25.626;2022-07-22T08:37:56;37.80;27.80
68385;DHT22;55336;43.062;25.626;2022-07-22T08:40:22;37.80;28.20
68385;DHT22;55336;43.062;25.626;2022-07-22T08:42:48;37.80;27.80
68385;DHT22;55336;43.062;25.626;2022-07-22T08:45:15;37.80;26.80
68385;DHT22;55336;43.062;25.626;2022-07-22T08:47:43;37.80;27.60
68385;DHT22;55336;43.062;25.626;2022-07-22T08:50:10;37.20;27.60
68385;DHT22;55336;43.062;25.626;2022-07-22T08:52:36;37.20;29.20
68385;DHT22;55336;43.062;25.626;2022-07-22T08:55:05;37.40;27.70
68385;DHT22;55336;43.062;25.626;2022-07-22T08:57:32;37.60;27.50
68385;DHT22;55336;43.062;25.626;2022-07-22T08:59:59;37.50;26.00
68385;DHT22;55336;43.062;25.626;2022-07-22T09:02:26;35.50;27.90
68385;DHT22;55336;43.062;25.626;2022-07-22T09:07:32;36.80;27.30
68385;DHT22;55336;43.062;25.626;2022-07-22T09:09:59;36.70;27.90
68385;DHT22;55336;43.062;25.626;2022-07-22T09:12:25;36.50;28.20
68385;DHT22;55336;43.062;25.626;2022-07-22T09:14:53;36.90;28.00
68385;DHT22;55336;43.062;25.626;2022-07-22T09:17:23;37.20;27.10
68385;DHT22;55336;43.062;25.626;2022-07-22T09:19:49;37.30;26.10
68385;DHT22;55336;43.062;25.626;2022-07-22T09:22:29;37.70;25.00
68385;DHT22;55336;43.062;25.626;2022-07-22T09:24:55;37.60;25.70
68385;DHT22;55336;43.062;25.626;2022-07-22T09:27:25;38.10;24.90
68385;DHT22;55336;43.062;25.626;2022-07-22T09:29:50;37.60;24.20
68385;DHT22;55336;43.062;25.626;2022-07-22T09:32:16;37.60;24.70
68385;DHT22;55336;43.062;25.626;2022-07-22T09:34:43;37.90;23.60
68385;DHT22;55336;43.062;25.626;2022-07-22T09:37:08;38.40;24.60
68385;DHT22;55336;43.062;25.626;2022-07-22T09:39:34;38.80;23.00
68385;DHT22;55336;43.062;25.626;2022-07-22T09:42:01;38.20;23.80
68385;DHT22;55336;43.062;25.626;2022-07-22T09:44:27;37.20;26.00
68385;DHT22;55336;43.062;25.626;2022-07-22T09:46:53;37.90;22.70
68385;DHT22;55336;43.062;25.626;2022-07-22T09:49:35;38.40;24.30
68385;DHT22;55336;43.062;25.626;2022-07-22T09:52:02;38.50;22.20
68385;DHT22;55336;43.062;25.626;2022-07-22T09:54:29;37.70;23.80
68385;DHT22;55336;43.062;25.626;2022-07-22T09:56:56;38.20;21.60
68385;DHT22;55336;43.062;25.626;2022-07-22T09:59:21;38.40;21.90
68385;DHT22;55336;43.062;25.626;2022-07-22T10:01:47;38.30;22.90
68385;DHT22;55336;43.062;25.626;2022-07-22T10:04:15;38.30;21.00
68385;DHT22;55336;43.062;25.626;2022-07-22T10:06:41;38.40;20.10
68385;DHT22;55336;43.062;25.626;2022-07-22T10:09:07;38.30;20.20
68385;DHT22;55336;43.062;25.626;2022-07-22T10:11:34;38.20;22.60
68385;DHT22;55336;43.062;25.626;2022-07-22T10:14:01;38.50;19.60
68385;DHT22;55336;43.062;25.626;2022-07-22T10:16:27;37.60;19.80
68385;DHT22;55336;43.062;25.626;2022-07-22T10:18:56;37.20;21.00
68385;DHT22;55336;43.062;25.626;2022-07-22T10:21:30;37.20;21.00
68385;DHT22;55336;43.062;25.626;2022-07-22T10:24:09;37.20;21.40
68385;DHT22;55336;43.062;25.626;2022-07-22T10:27:09;37.80;19.50
68385;DHT22;55336;43.062;25.626;2022-07-22T10:32:20;38.90;19.10
68385;DHT22;55336;43.062;25.626;2022-07-22T10:45:27;37.70;19.00
68385;DHT22;55336;43.062;25.626;2022-07-22T10:47:54;38.40;18.70
68385;DHT22;55336;43.062;25.626;2022-07-22T10:55:33;37.70;19.80
68385;DHT22;55336;43.062;25.626;2022-07-22T10:57:59;37.70;19.40
68385;DHT22;55336;43.062;25.626;2022-07-22T11:00:25;38.00;19.10
68385;DHT22;55336;43.062;25.626;2022-07-22T11:02:51;38.00;18.90
68385;DHT22;55336;43.062;25.626;2022-07-22T11:05:27;38.40;18.30
68385;DHT22;55336;43.062;25.626;2022-07-22T11:07:53;38.00;19.30
68385;DHT22;55336;43.062;25.626;2022-07-22T11:10:19;38.00;19.40
68385;DHT22;55336;43.062;25.626;2022-07-22T11:12:46;37.90;19.90
68385;DHT22;55336;43.062;25.626;2022-07-22T11:15:12;38.80;17.70
68385;DHT22;55336;43.062;25.626;2022-07-22T11:17:38;38.40;17.50
68385;DHT22;55336;43.062;25.626;2022-07-22T11:20:04;37.80;18.60
68385;DHT22;55336;43.062;25.626;2022-07-22T11:22:32;37.30;20.60
68385;DHT22;55336;43.062;25.626;2022-07-22T11:25:08;37.90;17.70
68385;DHT22;55336;43.062;25.626;2022-07-22T11:27:34;38.20;16.60
68385;DHT22;55336;43.062;25.626;2022-07-22T11:30:03;38.30;15.90
68385;DHT22;55336;43.062;25.626;2022-07-22T11:32:31;39.10;15.00
68385;DHT22;55336;43.062;25.626;2022-07-22T11:34:58;39.40;15.10
68385;DHT22;55336;43.062;25.626;2022-07-22T11:37:24;39.80;14.00
68385;DHT22;55336;43.062;25.626;2022-07-22T11:39:51;39.20;17.80
68385;DHT22;55336;43.062;25.626;2022-07-22T11:42:17;39.20;13.40
68385;DHT22;55336;43.062;25.626;2022-07-22T11:44:43;38.60;14.90
68385;DHT22;55336;43.062;25.626;2022-07-22T11:47:09;38.20;14.00
68385;DHT22;55336;43.062;25.626;2022-07-22T11:49:35;38.00;14.10
68385;DHT22;55336;43.062;25.626;2022-07-22T11:52:02;38.30;13.40
68385;DHT22;55336;43.062;25.626;2022-07-22T11:54:29;38.90;12.60
68385;DHT22;55336;43.062;25.626;2022-07-22T11:56:54;38.30;13.60
68385;DHT22;55336;43.062;25.626;2022-07-22T11:59:21;38.20;15.10
68385;DHT22;55336;43.062;25.626;2022-07-22T12:01:47;38.40;14.60
68385;DHT22;55336;43.062;25.626;2022-07-22T12:04:17;38.80;13.60
68385;DHT22;55336;43.062;25.626;2022-07-22T12:06:43;38.40;13.10
68385;DHT22;55336;43.062;25.626;2022-07-22T12:11:39;38.40;13.00
68385;DHT22;55336;43.062;25.626;2022-07-22T12:14:07;38.80;11.60
68385;DHT22;55336;43.062;25.626;2022-07-22T12:16:33;38.30;12.70
68385;DHT22;55336;43.062;25.626;2022-07-22T12:18:59;38.40;13.70
68385;DHT22;55336;43.062;25.626;2022-07-22T12:21:27;38.40;12.20
68385;DHT22;55336;43.062;25.626;2022-07-22T12:23:57;39.00;11.70
68385;DHT22;55336;43.062;25.626;2022-07-22T12:29:28;39.50;11.20
68385;DHT22;55336;43.062;25.626;2022-07-22T12:31:58;40.00;10.90
68385;DHT22;55336;43.062;25.626;2022-07-22T12:36:56;39.30;11.00
68385;DHT22;55336;43.062;25.626;2022-07-22T12:39:22;38.60;12.30
68385;DHT22;55336;43.062;25.626;2022-07-22T12:41:52;37.80;11.50
68385;DHT22;55336;43.062;25.626;2022-07-22T12:44:20;38.40;12.00
68385;DHT22;55336;43.062;25.626;2022-07-22T12:46:50;38.60;11.20
68385;DHT22;55336;43.062;25.626;2022-07-22T12:49:17;38.90;10.20
68385;DHT22;55336;43.062;25.626;2022-07-22T12:54:27;40.30;10.60
68385;DHT22;55336;43.062;25.626;2022-07-22T12:56:53;40.00;9.70
68385;DHT22;55336;43.062;25.626;2022-07-22T12:59:19;39.90;9.20
68385;DHT22;55336;43.062;25.626;2022-07-22T13:01:45;38.30;13.40
68385;DHT22;55336;43.062;25.626;2022-07-22T13:04:10;39.40;12.80
68385;DHT22;55336;43.062;25.626;2022-07-22T13:06:36;38.90;10.80
68385;DHT22;55336;43.062;25.626;2022-07-22T13:09:02;39.00;11.00
68385;DHT22;55336;43.062;25.626;2022-07-22T13:11:28;39.50;9.80
68385;DHT22;55336;43.062;25.626;2022-07-22T13:13:53;39.90;11.00
68385;DHT22;55336;43.062;25.626;2022-07-22T13:16:19;39.70;10.50
68385;DHT22;55336;43.062;25.626;2022-07-22T13:18:45;39.50;10.30
68385;DHT22;55336;43.062;25.626;2022-07-22T13:21:10;39.10;11.10
68385;DHT22;55336;43.062;25.626;2022-07-22T13:23:36;39.70;12.20
68385;DHT22;55336;43.062;25.626;2022-07-22T13:26:02;39.70;10.40
68385;DHT22;55336;43.062;25.626;2022-07-22T13:28:28;39.00;12.60
68385;DHT22;55336;43.062;25.626;2022-07-22T13:30:55;39.80;10.70
68385;DHT22;55336;43.062;25.626;2022-07-22T13:33:21;40.10;10.10
68385;DHT22;55336;43.062;25.626;2022-07-22T13:35:46;40.70;9.00
68385;DHT22;55336;43.062;25.626;2022-07-22T13:38:12;40.20;9.20
68385;DHT22;55336;43.062;25.626;2022-07-22T13:40:38;40.60;9.70
68385;DHT22;55336;43.062;25.626;2022-07-22T13:43:04;40.60;8.10
68385;DHT22;55336;43.062;25.626;2022-07-22T13:45:29;40.50;9.60
68385;DHT22;55336;43.062;25.626;2022-07-22T13:47:55;39.70;9.30
68385;DHT22;55336;43.062;25.626;2022-07-22T13:50:21;40.20;9.10
68385;DHT22;55336;43.062;25.626;2022-07-22T13:52:47;40.10;9.20
68385;DHT22;55336;43.062;25.626;2022-07-22T13:55:13;39.60;9.20
68385;DHT22;55336;43.062;25.626;2022-07-22T13:57:39;38.10;11.00
68385;DHT22;55336;43.062;25.626;2022-07-22T14:00:06;38.10;11.80
68385;DHT22;55336;43.062;25.626;2022-07-22T14:02:33;38.00;11.20
68385;DHT22;55336;43.062;25.626;2022-07-22T14:04:59;38.40;11.80
68385;DHT22;55336;43.062;25.626;2022-07-22T14:07:25;38.20;11.00
68385;DHT22;55336;43.062;25.626;2022-07-22T14:09:50;38.20;11.90
68385;DHT22;55336;43.062;25.626;2022-07-22T14:12:21;38.40;10.50
68385;DHT22;55336;43.062;25.626;2022-07-22T14:17:36;39.20;9.60
68385;DHT22;55336;43.062;25.626;2022-07-22T14:20:03;38.70;10.40
68385;DHT22;55336;43.062;25.626;2022-07-22T14:22:32;38.50;11.20
68385;DHT22;55336;43.062;25.626;2022-07-22T14:24:58;38.40;11.10
68385;DHT22;55336;43.062;25.626;2022-07-22T14:27:23;38.50;11.30
68385;DHT22;55336;43.062;25.626;2022-07-22T14:29:49;38.70;10.10
68385;DHT22;55336;43.062;25.626;2022-07-22T14:32:15;39.20;11.30
68385;DHT22;55336;43.062;25.626;2022-07-22T14:34:40;38.90;10.30
68385;DHT22;55336;43.062;25.626;2022-07-22T14:37:06;38.50;9.90
68385;DHT22;55336;43.062;25.626;2022-07-22T14:39:34;39.00;10.70
68385;DHT22;55336;43.062;25.626;2022-07-22T14:41:59;39.20;11.70
68385;DHT22;55336;43.062;25.626;2022-07-22T14:44:25;38.60;13.00
68385;DHT22;55336;43.062;25.626;2022-07-22T14:46:51;39.40;10.90
68385;DHT22;55336;43.062;25.626;2022-07-22T14:49:17;38.90;11.00
68385;DHT22;55336;43.062;25.626;2022-07-22T14:51:43;38.80;11.10
68385;DHT22;55336;43.062;25.626;2022-07-22T14:54:08;38.80;10.20
68385;DHT22;55336;43.062;25.626;2022-07-22T14:56:37;38.60;11.00
68385;DHT22;55336;43.062;25.626;2022-07-22T14:59:03;38.40;11.00
68385;DHT22;55336;43.062;25.626;2022-07-22T15:01:29;38.60;10.40
68385;DHT22;55336;43.062;25.626;2022-07-22T15:03:55;39.10;10.90
68385;DHT22;55336;43.062;25.626;2022-07-22T15:06:20;39.30;10.50
68385;DHT22;55336;43.062;25.626;2022-07-22T15:08:46;39.40;12.20
68385;DHT22;55336;43.062;25.626;2022-07-22T15:11:12;39.80;10.40
68385;DHT22;55336;43.062;25.626;2022-07-22T15:13:38;39.30;9.50
68385;DHT22;55336;43.062;25.626;2022-07-22T15:16:03;38.70;10.50
68385;DHT22;55336;43.062;25.626;2022-07-22T15:18:29;38.70;10.40
68385;DHT22;55336;43.062;25.626;2022-07-22T15:20:55;38.50;10.70
68385;DHT22;55336;43.062;25.626;2022-07-22T15:23:25;38.80;11.00
68385;DHT22;55336;43.062;25.626;2022-07-22T15:26:00;39.10;10.80
68385;DHT22;55336;43.062;25.626;2022-07-22T15:28:26;39.20;11.40
68385;DHT22;55336;43.062;25.626;2022-07-22T15:30:53;39.60;11.60
68385;DHT22;55336;43.062;25.626;2022-07-22T15:33:20;39.40;12.00
68385;DHT22;55336;43.062;25.626;2022-07-22T15:35:46;39.00;10.80
68385;DHT22;55336;43.062;25.626;2022-07-22T15:38:12;38.80;9.80
68385;DHT22;55336;43.062;25.626;2022-07-22T15:40:38;38.40;12.40
68385;DHT22;55336;43.062;25.626;2022-07-22T15:43:05;38.10;11.50
68385;DHT22;55336;43.062;25.626;2022-07-22T15:45:31;38.00;12.80
68385;DHT22;55336;43.062;25.626;2022-07-22T15:47:56;38.10;12.20
68385;DHT22;55336;43.062;25.626;2022-07-22T15:50:22;38.30;11.10